sensor_id;sensor_type;location;lat;lon;timestamp;P1;durP1;ratioP1;P2;durP2;ratioP2
70052;SDS011;57398;52.032;4.376;2023-03-13T00:00:10;11.73;;;3.47;;
70052;SDS011;57398;52.032;4.376;2023-03-13T00:02:58;10.55;;;3.72;;
70052;SDS011;57398;52.032;4.376;2023-03-13T00:05:48;15.07;;;4.80;;
70052;SDS011;57398;52.032;4.376;2023-03-13T00:08:36;14.13;;;4.93;;
70052;SDS011;57398;52.032;4.376;2023-03-13T00:11:25;20.73;;;5.80;;
70052;SDS011;57398;52.032;4.376;2023-03-13T00:14:14;16.40;;;5.60;;
70052;SDS011;57398;52.032;4.376;2023-03-13T00:17:02;16.95;;;5.55;;
70052;SDS011;57398;52.032;4.376;2023-03-13T00:19:50;16.27;;;6.25;;
70052;SDS011;57398;52.032;4.376;2023-03-13T00:22:40;15.38;;;5.57;;
70052;SDS011;57398;52.032;4.376;2023-03-13T00:25:28;16.10;;;6.28;;
70052;SDS011;57398;52.032;4.376;2023-03-13T00:28:16;17.40;;;6.23;;
70052;SDS011;57398;52.032;4.376;2023-03-13T00:31:05;16.60;;;5.88;;
70052;SDS011;57398;52.032;4.376;2023-03-13T00:33:56;15.25;;;5.63;;
70052;SDS011;57398;52.032;4.376;2023-03-13T00:36:45;17.42;;;5.90;;
70052;SDS011;57398;52.032;4.376;2023-03-13T00:39:35;16.48;;;5.68;;
70052;SDS011;57398;52.032;4.376;2023-03-13T00:42:23;13.60;;;5.70;;
70052;SDS011;57398;52.032;4.376;2023-03-13T00:45:11;14.82;;;5.72;;
70052;SDS011;57398;52.032;4.376;2023-03-13T00:47:59;13.50;;;5.90;;
70052;SDS011;57398;52.032;4.376;2023-03-13T00:50:47;15.93;;;5.05;;
70052;SDS011;57398;52.032;4.376;2023-03-13T00:53:35;15.80;;;5.55;;
70052;SDS011;57398;52.032;4.376;2023-03-13T00:56:25;13.73;;;5.70;;
70052;SDS011;57398;52.032;4.376;2023-03-13T00:59:14;14.48;;;5.20;;
70052;SDS011;57398;52.032;4.376;2023-03-13T01:02:02;15.25;;;5.25;;
70052;SDS011;57398;52.032;4.376;2023-03-13T01:04:50;11.73;;;4.50;;
70052;SDS011;57398;52.032;4.376;2023-03-13T01:07:39;16.85;;;5.53;;
70052;SDS011;57398;52.032;4.376;2023-03-13T01:10:27;12.03;;;4.43;;
70052;SDS011;57398;52.032;4.376;2023-03-13T01:13:17;13.18;;;5.00;;
70052;SDS011;57398;52.032;4.376;2023-03-13T01:16:06;15.27;;;5.50;;
70052;SDS011;57398;52.032;4.376;2023-03-13T01:18:58;17.58;;;5.63;;
70052;SDS011;57398;52.032;4.376;2023-03-13T01:21:48;16.38;;;5.72;;
70052;SDS011;57398;52.032;4.376;2023-03-13T01:24:36;13.23;;;5.20;;
70052;SDS011;57398;52.032;4.376;2023-03-13T01:27:24;14.70;;;5.63;;
70052;SDS011;57398;52.032;4.376;2023-03-13T01:30:13;15.73;;;5.65;;
70052;SDS011;57398;52.032;4.376;2023-03-13T01:33:02;11.95;;;5.03;;
70052;SDS011;57398;52.032;4.376;2023-03-13T01:35:50;17.95;;;6.10;;
70052;SDS011;57398;52.032;4.376;2023-03-13T01:38:39;18.17;;;6.30;;
70052;SDS011;57398;52.032;4.376;2023-03-13T01:41:27;15.93;;;5.47;;
70052;SDS011;57398;52.032;4.376;2023-03-13T01:44:19;13.65;;;5.75;;
70052;SDS011;57398;52.032;4.376;2023-03-13T01:47:10;15.30;;;6.57;;
70052;SDS011;57398;52.032;4.376;2023-03-13T01:49:59;17.65;;;6.60;;
70052;SDS011;57398;52.032;4.376;2023-03-13T01:52:47;18.07;;;6.47;;
70052;SDS011;57398;52.032;4.376;2023-03-13T01:55:35;18.45;;;6.47;;
70052;SDS011;57398;52.032;4.376;2023-03-13T01:58:24;19.15;;;7.20;;
70052;SDS011;57398;52.032;4.376;2023-03-13T02:01:13;17.98;;;6.10;;
70052;SDS011;57398;52.032;4.376;2023-03-13T02:04:04;15.75;;;6.18;;
70052;SDS011;57398;52.032;4.376;2023-03-13T02:06:55;19.70;;;7.03;;
70052;SDS011;57398;52.032;4.376;2023-03-13T02:09:48;17.52;;;5.70;;
70052;SDS011;57398;52.032;4.376;2023-03-13T02:12:39;20.83;;;6.65;;
70052;SDS011;57398;52.032;4.376;2023-03-13T02:15:27;17.35;;;6.32;;
70052;SDS011;57398;52.032;4.376;2023-03-13T02:18:17;17.98;;;6.38;;
70052;SDS011;57398;52.032;4.376;2023-03-13T02:21:09;16.00;;;5.60;;
70052;SDS011;57398;52.032;4.376;2023-03-13T02:24:02;13.77;;;5.60;;
70052;SDS011;57398;52.032;4.376;2023-03-13T02:26:57;14.73;;;5.43;;
70052;SDS011;57398;52.032;4.376;2023-03-13T02:29:45;14.57;;;5.55;;
70052;SDS011;57398;52.032;4.376;2023-03-13T02:32:34;15.48;;;5.78;;
70052;SDS011;57398;52.032;4.376;2023-03-13T02:35:23;14.93;;;5.80;;
70052;SDS011;57398;52.032;4.376;2023-03-13T02:38:13;13.77;;;5.55;;
70052;SDS011;57398;52.032;4.376;2023-03-13T02:41:04;18.30;;;6.15;;
70052;SDS011;57398;52.032;4.376;2023-03-13T02:43:54;17.63;;;5.80;;
70052;SDS011;57398;52.032;4.376;2023-03-13T02:46:43;12.23;;;5.53;;
70052;SDS011;57398;52.032;4.376;2023-03-13T02:49:33;15.10;;;5.70;;
70052;SDS011;57398;52.032;4.376;2023-03-13T02:52:22;17.00;;;5.80;;
70052;SDS011;57398;52.032;4.376;2023-03-13T02:55:13;12.35;;;4.72;;
70052;SDS011;57398;52.032;4.376;2023-03-13T02:58:04;12.48;;;4.60;;
70052;SDS011;57398;52.032;4.376;2023-03-13T03:00:53;11.82;;;4.47;;
70052;SDS011;57398;52.032;4.376;2023-03-13T03:03:41;10.33;;;3.53;;
70052;SDS011;57398;52.032;4.376;2023-03-13T03:06:30;9.88;;;3.67;;
70052;SDS011;57398;52.032;4.376;2023-03-13T03:09:18;8.98;;;2.90;;
70052;SDS011;57398;52.032;4.376;2023-03-13T03:12:07;9.13;;;2.90;;
70052;SDS011;57398;52.032;4.376;2023-03-13T03:14:55;9.90;;;2.97;;
70052;SDS011;57398;52.032;4.376;2023-03-13T03:17:45;8.90;;;3.00;;
70052;SDS011;57398;52.032;4.376;2023-03-13T03:20:33;8.02;;;3.20;;
70052;SDS011;57398;52.032;4.376;2023-03-13T03:23:21;10.10;;;3.20;;
70052;SDS011;57398;52.032;4.376;2023-03-13T03:26:09;8.40;;;2.38;;
70052;SDS011;57398;52.032;4.376;2023-03-13T03:28:57;8.13;;;2.90;;
70052;SDS011;57398;52.032;4.376;2023-03-13T03:31:45;12.17;;;2.90;;
70052;SDS011;57398;52.032;4.376;2023-03-13T03:34:35;8.73;;;3.33;;
70052;SDS011;57398;52.032;4.376;2023-03-13T03:37:23;9.25;;;3.00;;
70052;SDS011;57398;52.032;4.376;2023-03-13T03:40:12;7.18;;;2.80;;
70052;SDS011;57398;52.032;4.376;2023-03-13T03:43:00;9.82;;;3.17;;
70052;SDS011;57398;52.032;4.376;2023-03-13T03:45:48;10.37;;;3.30;;
70052;SDS011;57398;52.032;4.376;2023-03-13T03:48:36;8.82;;;3.38;;
70052;SDS011;57398;52.032;4.376;2023-03-13T03:51:26;11.35;;;3.67;;
70052;SDS011;57398;52.032;4.376;2023-03-13T03:54:14;10.45;;;3.53;;
70052;SDS011;57398;52.032;4.376;2023-03-13T03:57:02;7.97;;;3.42;;
70052;SDS011;57398;52.032;4.376;2023-03-13T03:59:50;12.30;;;3.63;;
70052;SDS011;57398;52.032;4.376;2023-03-13T04:02:38;11.43;;;3.35;;
70052;SDS011;57398;52.032;4.376;2023-03-13T04:05:27;10.65;;;3.92;;
70052;SDS011;57398;52.032;4.376;2023-03-13T04:08:16;11.88;;;3.80;;
70052;SDS011;57398;52.032;4.376;2023-03-13T04:11:04;11.38;;;3.75;;
70052;SDS011;57398;52.032;4.376;2023-03-13T04:13:52;10.30;;;3.33;;
70052;SDS011;57398;52.032;4.376;2023-03-13T04:16:41;9.40;;;3.30;;
70052;SDS011;57398;52.032;4.376;2023-03-13T04:19:29;10.55;;;3.40;;
70052;SDS011;57398;52.032;4.376;2023-03-13T04:22:17;8.00;;;3.00;;
70052;SDS011;57398;52.032;4.376;2023-03-13T04:25:07;8.45;;;3.17;;
70052;SDS011;57398;52.032;4.376;2023-03-13T04:27:56;11.67;;;3.70;;
70052;SDS011;57398;52.032;4.376;2023-03-13T04:30:44;10.50;;;3.70;;
70052;SDS011;57398;52.032;4.376;2023-03-13T04:33:32;10.38;;;3.80;;
70052;SDS011;57398;52.032;4.376;2023-03-13T04:36:22;9.25;;;3.15;;
70052;SDS011;57398;52.032;4.376;2023-03-13T04:39:10;10.52;;;3.60;;
70052;SDS011;57398;52.032;4.376;2023-03-13T04:42:00;10.93;;;3.87;;
70052;SDS011;57398;52.032;4.376;2023-03-13T04:44:48;9.73;;;3.63;;
70052;SDS011;57398;52.032;4.376;2023-03-13T04:47:36;10.23;;;3.67;;
70052;SDS011;57398;52.032;4.376;2023-03-13T04:50:24;10.15;;;3.38;;
70052;SDS011;57398;52.032;4.376;2023-03-13T04:53:13;10.75;;;3.40;;
70052;SDS011;57398;52.032;4.376;2023-03-13T04:56:01;10.47;;;2.93;;
70052;SDS011;57398;52.032;4.376;2023-03-13T04:58:50;11.65;;;3.22;;
70052;SDS011;57398;52.032;4.376;2023-03-13T05:01:39;15.35;;;3.60;;
70052;SDS011;57398;52.032;4.376;2023-03-13T05:04:27;12.10;;;3.75;;
70052;SDS011;57398;52.032;4.376;2023-03-13T05:07:16;11.68;;;3.97;;
70052;SDS011;57398;52.032;4.376;2023-03-13T05:10:04;11.30;;;3.50;;
70052;SDS011;57398;52.032;4.376;2023-03-13T05:12:52;10.75;;;3.10;;
70052;SDS011;57398;52.032;4.376;2023-03-13T05:15:42;9.20;;;2.58;;
70052;SDS011;57398;52.032;4.376;2023-03-13T05:18:30;9.20;;;2.50;;
70052;SDS011;57398;52.032;4.376;2023-03-13T05:21:19;12.40;;;2.67;;
70052;SDS011;57398;52.032;4.376;2023-03-13T05:24:07;13.87;;;2.70;;
70052;SDS011;57398;52.032;4.376;2023-03-13T05:26:55;8.63;;;3.03;;
70052;SDS011;57398;52.032;4.376;2023-03-13T05:29:43;9.98;;;2.70;;
70052;SDS011;57398;52.032;4.376;2023-03-13T05:32:33;10.15;;;2.65;;
70052;SDS011;57398;52.032;4.376;2023-03-13T05:35:21;8.18;;;2.15;;
70052;SDS011;57398;52.032;4.376;2023-03-13T05:38:10;8.03;;;2.43;;
70052;SDS011;57398;52.032;4.376;2023-03-13T05:40:58;9.57;;;2.47;;
70052;SDS011;57398;52.032;4.376;2023-03-13T05:43:46;8.50;;;2.30;;
70052;SDS011;57398;52.032;4.376;2023-03-13T05:46:34;6.45;;;1.83;;
70052;SDS011;57398;52.032;4.376;2023-03-13T05:49:24;8.38;;;2.45;;
70052;SDS011;57398;52.032;4.376;2023-03-13T05:52:12;10.90;;;2.67;;
70052;SDS011;57398;52.032;4.376;2023-03-13T05:55:00;12.48;;;2.60;;
70052;SDS011;57398;52.032;4.376;2023-03-13T05:57:48;8.40;;;2.60;;
70052;SDS011;57398;52.032;4.376;2023-03-13T06:00:36;10.35;;;2.78;;
70052;SDS011;57398;52.032;4.376;2023-03-13T06:03:24;8.23;;;2.38;;
70052;SDS011;57398;52.032;4.376;2023-03-13T06:06:14;9.03;;;2.50;;
70052;SDS011;57398;52.032;4.376;2023-03-13T06:09:02;8.45;;;2.35;;
70052;SDS011;57398;52.032;4.376;2023-03-13T06:11:50;9.20;;;2.90;;
70052;SDS011;57398;52.032;4.376;2023-03-13T06:14:38;5.35;;;1.98;;
70052;SDS011;57398;52.032;4.376;2023-03-13T06:17:26;8.25;;;2.83;;
70052;SDS011;57398;52.032;4.376;2023-03-13T06:20:15;9.93;;;2.63;;
70052;SDS011;57398;52.032;4.376;2023-03-13T06:23:05;7.47;;;2.35;;
70052;SDS011;57398;52.032;4.376;2023-03-13T06:25:53;12.60;;;2.70;;
70052;SDS011;57398;52.032;4.376;2023-03-13T06:28:41;7.82;;;2.70;;
70052;SDS011;57398;52.032;4.376;2023-03-13T06:31:29;7.78;;;2.35;;
70052;SDS011;57398;52.032;4.376;2023-03-13T06:34:17;11.30;;;2.83;;
70052;SDS011;57398;52.032;4.376;2023-03-13T06:37:06;6.53;;;2.50;;
70052;SDS011;57398;52.032;4.376;2023-03-13T06:39:55;8.55;;;2.72;;
70052;SDS011;57398;52.032;4.376;2023-03-13T06:42:43;14.88;;;3.45;;
70052;SDS011;57398;52.032;4.376;2023-03-13T06:45:33;9.18;;;2.80;;
70052;SDS011;57398;52.032;4.376;2023-03-13T06:48:22;12.33;;;3.13;;
70052;SDS011;57398;52.032;4.376;2023-03-13T06:51:10;12.07;;;3.13;;
70052;SDS011;57398;52.032;4.376;2023-03-13T06:54:00;8.63;;;2.90;;
70052;SDS011;57398;52.032;4.376;2023-03-13T06:56:50;9.18;;;3.10;;
70052;SDS011;57398;52.032;4.376;2023-03-13T06:59:38;11.77;;;3.30;;
70052;SDS011;57398;52.032;4.376;2023-03-13T07:02:26;8.87;;;2.83;;
70052;SDS011;57398;52.032;4.376;2023-03-13T07:05:14;7.40;;;2.67;;
70052;SDS011;57398;52.032;4.376;2023-03-13T07:08:02;8.35;;;2.63;;
70052;SDS011;57398;52.032;4.376;2023-03-13T07:10:50;7.82;;;2.60;;
70052;SDS011;57398;52.032;4.376;2023-03-13T07:13:40;8.95;;;2.50;;
70052;SDS011;57398;52.032;4.376;2023-03-13T07:16:29;6.47;;;2.40;;
70052;SDS011;57398;52.032;4.376;2023-03-13T07:19:17;6.05;;;1.90;;
70052;SDS011;57398;52.032;4.376;2023-03-13T07:22:05;11.43;;;3.08;;
70052;SDS011;57398;52.032;4.376;2023-03-13T07:24:53;8.13;;;2.53;;
70052;SDS011;57398;52.032;4.376;2023-03-13T07:27:41;7.25;;;2.78;;
70052;SDS011;57398;52.032;4.376;2023-03-13T07:30:31;8.30;;;2.40;;
70052;SDS011;57398;52.032;4.376;2023-03-13T07:33:19;9.15;;;2.53;;
70052;SDS011;57398;52.032;4.376;2023-03-13T07:36:07;8.45;;;2.38;;
70052;SDS011;57398;52.032;4.376;2023-03-13T07:38:56;7.10;;;2.65;;
70052;SDS011;57398;52.032;4.376;2023-03-13T07:41:44;8.00;;;2.00;;
70052;SDS011;57398;52.032;4.376;2023-03-13T07:44:32;8.47;;;2.33;;
70052;SDS011;57398;52.032;4.376;2023-03-13T07:47:22;9.95;;;2.75;;
70052;SDS011;57398;52.032;4.376;2023-03-13T07:50:10;7.93;;;2.78;;
70052;SDS011;57398;52.032;4.376;2023-03-13T07:52:58;8.45;;;2.28;;
70052;SDS011;57398;52.032;4.376;2023-03-13T07:55:50;8.15;;;2.90;;
70052;SDS011;57398;52.032;4.376;2023-03-13T07:58:40;11.60;;;2.17;;
70052;SDS011;57398;52.032;4.376;2023-03-13T08:01:29;5.20;;;1.90;;
70052;SDS011;57398;52.032;4.376;2023-03-13T08:04:19;5.63;;;1.92;;
70052;SDS011;57398;52.032;4.376;2023-03-13T08:07:07;7.15;;;1.90;;
70052;SDS011;57398;52.032;4.376;2023-03-13T08:09:56;10.00;;;2.10;;
70052;SDS011;57398;52.032;4.376;2023-03-13T08:12:44;7.53;;;1.73;;
70052;SDS011;57398;52.032;4.376;2023-03-13T08:15:32;5.10;;;1.77;;
70052;SDS011;57398;52.032;4.376;2023-03-13T08:18:20;5.72;;;1.60;;
70052;SDS011;57398;52.032;4.376;2023-03-13T08:21:10;6.88;;;1.73;;
70052;SDS011;57398;52.032;4.376;2023-03-13T08:24:00;5.57;;;2.00;;
70052;SDS011;57398;52.032;4.376;2023-03-13T08:26:51;5.40;;;1.57;;
70052;SDS011;57398;52.032;4.376;2023-03-13T08:29:39;9.82;;;1.55;;
70052;SDS011;57398;52.032;4.376;2023-03-13T08:32:27;5.65;;;1.52;;
70052;SDS011;57398;52.032;4.376;2023-03-13T08:35:15;7.63;;;1.50;;
70052;SDS011;57398;52.032;4.376;2023-03-13T08:38:05;8.55;;;1.77;;
70052;SDS011;57398;52.032;4.376;2023-03-13T08:40:55;5.97;;;1.50;;
70052;SDS011;57398;52.032;4.376;2023-03-13T08:43:43;5.70;;;1.42;;
70052;SDS011;57398;52.032;4.376;2023-03-13T08:46:32;8.35;;;2.10;;
70052;SDS011;57398;52.032;4.376;2023-03-13T08:49:22;7.05;;;1.50;;
70052;SDS011;57398;52.032;4.376;2023-03-13T08:52:10;7.75;;;1.27;;
70052;SDS011;57398;52.032;4.376;2023-03-13T08:54:59;8.97;;;1.70;;
70052;SDS011;57398;52.032;4.376;2023-03-13T08:57:47;6.90;;;1.40;;
70052;SDS011;57398;52.032;4.376;2023-03-13T09:00:35;6.25;;;1.80;;
70052;SDS011;57398;52.032;4.376;2023-03-13T09:03:23;8.88;;;1.48;;
70052;SDS011;57398;52.032;4.376;2023-03-13T09:06:15;7.65;;;2.00;;
70052;SDS011;57398;52.032;4.376;2023-03-13T09:09:04;6.17;;;1.20;;
70052;SDS011;57398;52.032;4.376;2023-03-13T09:11:54;5.50;;;1.23;;
70052;SDS011;57398;52.032;4.376;2023-03-13T09:14:42;8.52;;;1.35;;
70052;SDS011;57398;52.032;4.376;2023-03-13T09:17:30;5.45;;;1.38;;
70052;SDS011;57398;52.032;4.376;2023-03-13T09:20:18;6.22;;;1.55;;
70052;SDS011;57398;52.032;4.376;2023-03-13T09:23:09;10.10;;;1.40;;
70052;SDS011;57398;52.032;4.376;2023-03-13T09:25:57;7.50;;;1.75;;
70052;SDS011;57398;52.032;4.376;2023-03-13T09:28:47;8.65;;;1.35;;
70052;SDS011;57398;52.032;4.376;2023-03-13T09:31:35;8.10;;;1.23;;
70052;SDS011;57398;52.032;4.376;2023-03-13T09:34:24;4.20;;;1.30;;
70052;SDS011;57398;52.032;4.376;2023-03-13T09:37:12;7.67;;;1.87;;
70052;SDS011;57398;52.032;4.376;2023-03-13T09:40:01;6.18;;;1.42;;
70052;SDS011;57398;52.032;4.376;2023-03-13T09:42:51;5.65;;;0.90;;
70052;SDS011;57398;52.032;4.376;2023-03-13T09:45:43;5.53;;;0.82;;
70052;SDS011;57398;52.032;4.376;2023-03-13T09:48:34;3.30;;;1.00;;
70052;SDS011;57398;52.032;4.376;2023-03-13T09:51:29;4.23;;;1.10;;
70052;SDS011;57398;52.032;4.376;2023-03-13T09:54:24;6.63;;;1.10;;
70052;SDS011;57398;52.032;4.376;2023-03-13T09:57:17;3.38;;;1.10;;
70052;SDS011;57398;52.032;4.376;2023-03-13T10:00:11;4.55;;;1.00;;
70052;SDS011;57398;52.032;4.376;2023-03-13T10:03:04;5.38;;;1.10;;
70052;SDS011;57398;52.032;4.376;2023-03-13T10:06:03;4.73;;;1.27;;
70052;SDS011;57398;52.032;4.376;2023-03-13T10:08:58;5.88;;;1.08;;
70052;SDS011;57398;52.032;4.376;2023-03-13T10:11:50;5.97;;;1.10;;
70052;SDS011;57398;52.032;4.376;2023-03-13T10:14:45;6.05;;;1.33;;
70052;SDS011;57398;52.032;4.376;2023-03-13T10:17:40;4.05;;;1.13;;
70052;SDS011;57398;52.032;4.376;2023-03-13T10:20:32;5.00;;;1.20;;
70052;SDS011;57398;52.032;4.376;2023-03-13T10:23:24;5.28;;;1.00;;
70052;SDS011;57398;52.032;4.376;2023-03-13T10:26:15;6.97;;;1.15;;
70052;SDS011;57398;52.032;4.376;2023-03-13T10:29:19;6.55;;;1.45;;
70052;SDS011;57398;52.032;4.376;2023-03-13T10:32:09;4.57;;;1.23;;
70052;SDS011;57398;52.032;4.376;2023-03-13T10:35:00;6.97;;;1.50;;
70052;SDS011;57398;52.032;4.376;2023-03-13T10:37:50;5.70;;;1.30;;
70052;SDS011;57398;52.032;4.376;2023-03-13T10:40:55;4.90;;;1.15;;
70052;SDS011;57398;52.032;4.376;2023-03-13T10:43:48;4.93;;;1.40;;
70052;SDS011;57398;52.032;4.376;2023-03-13T10:46:39;6.68;;;1.20;;
70052;SDS011;57398;52.032;4.376;2023-03-13T10:49:30;7.07;;;1.07;;
70052;SDS011;57398;52.032;4.376;2023-03-13T10:52:29;5.65;;;1.20;;
70052;SDS011;57398;52.032;4.376;2023-03-13T10:55:24;8.35;;;1.50;;
70052;SDS011;57398;52.032;4.376;2023-03-13T10:58:16;6.55;;;1.27;;
70052;SDS011;57398;52.032;4.376;2023-03-13T11:01:08;5.82;;;1.55;;
70052;SDS011;57398;52.032;4.376;2023-03-13T11:04:17;8.53;;;1.50;;
70052;SDS011;57398;52.032;4.376;2023-03-13T11:07:11;8.52;;;1.60;;
70052;SDS011;57398;52.032;4.376;2023-03-13T11:10:05;9.57;;;1.50;;
70052;SDS011;57398;52.032;4.376;2023-03-13T11:13:09;7.30;;;1.35;;
70052;SDS011;57398;52.032;4.376;2023-03-13T11:16:23;8.15;;;1.40;;
70052;SDS011;57398;52.032;4.376;2023-03-13T11:22:35;7.97;;;1.73;;
70052;SDS011;57398;52.032;4.376;2023-03-13T11:25:33;11.25;;;1.80;;
70052;SDS011;57398;52.032;4.376;2023-03-13T11:28:28;10.45;;;1.63;;
70052;SDS011;57398;52.032;4.376;2023-03-13T11:31:30;6.53;;;1.88;;
70052;SDS011;57398;52.032;4.376;2023-03-13T11:34:21;7.60;;;1.53;;
70052;SDS011;57398;52.032;4.376;2023-03-13T11:37:15;8.13;;;1.75;;
70052;SDS011;57398;52.032;4.376;2023-03-13T11:40:09;6.78;;;1.50;;
70052;SDS011;57398;52.032;4.376;2023-03-13T11:43:19;9.85;;;1.67;;
70052;SDS011;57398;52.032;4.376;2023-03-13T11:46:23;10.90;;;2.10;;
70052;SDS011;57398;52.032;4.376;2023-03-13T11:49:32;7.97;;;1.57;;
70052;SDS011;57398;52.032;4.376;2023-03-13T11:52:34;11.27;;;1.85;;
70052;SDS011;57398;52.032;4.376;2023-03-13T11:55:33;11.65;;;2.10;;
70052;SDS011;57398;52.032;4.376;2023-03-13T11:58:35;11.50;;;1.75;;
70052;SDS011;57398;52.032;4.376;2023-03-13T12:01:34;11.38;;;1.90;;
70052;SDS011;57398;52.032;4.376;2023-03-13T12:04:28;10.83;;;2.07;;
70052;SDS011;57398;52.032;4.376;2023-03-13T12:07:23;10.40;;;1.98;;
70052;SDS011;57398;52.032;4.376;2023-03-13T12:10:15;11.05;;;1.90;;
70052;SDS011;57398;52.032;4.376;2023-03-13T12:13:10;10.75;;;2.20;;
70052;SDS011;57398;52.032;4.376;2023-03-13T12:16:05;13.38;;;2.10;;
70052;SDS011;57398;52.032;4.376;2023-03-13T12:18:58;13.07;;;2.63;;
70052;SDS011;57398;52.032;4.376;2023-03-13T12:21:47;8.70;;;2.00;;
70052;SDS011;57398;52.032;4.376;2023-03-13T12:24:43;16.88;;;2.85;;
70052;SDS011;57398;52.032;4.376;2023-03-13T12:27:40;9.30;;;2.25;;
70052;SDS011;57398;52.032;4.376;2023-03-13T12:30:32;12.95;;;1.90;;
70052;SDS011;57398;52.032;4.376;2023-03-13T12:33:27;11.17;;;1.80;;
70052;SDS011;57398;52.032;4.376;2023-03-13T12:36:24;15.73;;;2.50;;
70052;SDS011;57398;52.032;4.376;2023-03-13T12:39:19;10.65;;;2.15;;
70052;SDS011;57398;52.032;4.376;2023-03-13T12:42:19;8.30;;;1.80;;
70052;SDS011;57398;52.032;4.376;2023-03-13T12:45:17;9.45;;;1.67;;
70052;SDS011;57398;52.032;4.376;2023-03-13T12:48:19;13.73;;;2.00;;
70052;SDS011;57398;52.032;4.376;2023-03-13T12:51:30;10.95;;;1.67;;
70052;SDS011;57398;52.032;4.376;2023-03-13T12:54:38;13.65;;;2.22;;
70052;SDS011;57398;52.032;4.376;2023-03-13T12:57:49;8.15;;;1.25;;
70052;SDS011;57398;52.032;4.376;2023-03-13T13:01:01;6.32;;;1.83;;
70052;SDS011;57398;52.032;4.376;2023-03-13T13:03:51;11.50;;;1.90;;
70052;SDS011;57398;52.032;4.376;2023-03-13T13:06:51;10.40;;;2.30;;
70052;SDS011;57398;52.032;4.376;2023-03-13T13:09:59;9.07;;;2.20;;
70052;SDS011;57398;52.032;4.376;2023-03-13T13:16:14;11.70;;;2.35;;
70052;SDS011;57398;52.032;4.376;2023-03-13T13:22:48;7.60;;;1.35;;
70052;SDS011;57398;52.032;4.376;2023-03-13T13:25:38;11.50;;;1.38;;
70052;SDS011;57398;52.032;4.376;2023-03-13T13:28:33;10.30;;;2.03;;
70052;SDS011;57398;52.032;4.376;2023-03-13T13:34:52;11.60;;;2.03;;
70052;SDS011;57398;52.032;4.376;2023-03-13T13:37:42;13.52;;;2.17;;
70052;SDS011;57398;52.032;4.376;2023-03-13T13:40:34;12.85;;;2.20;;
70052;SDS011;57398;52.032;4.376;2023-03-13T13:43:22;8.10;;;1.70;;
70052;SDS011;57398;52.032;4.376;2023-03-13T13:46:17;15.38;;;2.33;;
70052;SDS011;57398;52.032;4.376;2023-03-13T13:49:13;7.87;;;1.27;;
70052;SDS011;57398;52.032;4.376;2023-03-13T13:52:16;13.38;;;1.95;;
70052;SDS011;57398;52.032;4.376;2023-03-13T13:55:31;11.63;;;1.63;;
70052;SDS011;57398;52.032;4.376;2023-03-13T13:58:29;11.10;;;1.98;;
70052;SDS011;57398;52.032;4.376;2023-03-13T14:01:19;9.32;;;1.90;;
70052;SDS011;57398;52.032;4.376;2023-03-13T14:04:10;16.10;;;2.70;;
70052;SDS011;57398;52.032;4.376;2023-03-13T14:07:02;12.73;;;1.92;;
70052;SDS011;57398;52.032;4.376;2023-03-13T14:09:55;12.95;;;1.88;;
70052;SDS011;57398;52.032;4.376;2023-03-13T14:12:51;10.43;;;2.03;;
70052;SDS011;57398;52.032;4.376;2023-03-13T14:15:41;11.18;;;2.00;;
70052;SDS011;57398;52.032;4.376;2023-03-13T14:18:31;11.70;;;2.03;;
70052;SDS011;57398;52.032;4.376;2023-03-13T14:21:20;12.50;;;2.08;;
70052;SDS011;57398;52.032;4.376;2023-03-13T14:24:12;9.68;;;1.60;;
70052;SDS011;57398;52.032;4.376;2023-03-13T14:27:02;16.00;;;2.35;;
70052;SDS011;57398;52.032;4.376;2023-03-13T14:30:04;8.95;;;1.38;;
70052;SDS011;57398;52.032;4.376;2023-03-13T14:32:54;11.40;;;1.90;;
70052;SDS011;57398;52.032;4.376;2023-03-13T14:35:42;12.00;;;2.15;;
70052;SDS011;57398;52.032;4.376;2023-03-13T14:38:31;10.90;;;1.73;;
70052;SDS011;57398;52.032;4.376;2023-03-13T14:41:21;12.45;;;1.85;;
70052;SDS011;57398;52.032;4.376;2023-03-13T14:44:13;12.38;;;2.00;;
70052;SDS011;57398;52.032;4.376;2023-03-13T14:47:06;8.73;;;1.60;;
70052;SDS011;57398;52.032;4.376;2023-03-13T14:50:08;10.82;;;1.58;;
70052;SDS011;57398;52.032;4.376;2023-03-13T14:52:59;13.93;;;2.10;;
70052;SDS011;57398;52.032;4.376;2023-03-13T14:59:08;11.38;;;1.90;;
70052;SDS011;57398;52.032;4.376;2023-03-13T15:02:11;7.80;;;1.50;;
70052;SDS011;57398;52.032;4.376;2023-03-13T15:05:04;11.82;;;2.00;;
70052;SDS011;57398;52.032;4.376;2023-03-13T15:07:58;9.63;;;1.42;;
70052;SDS011;57398;52.032;4.376;2023-03-13T15:10:46;9.95;;;2.10;;
70052;SDS011;57398;52.032;4.376;2023-03-13T15:13:36;9.52;;;2.15;;
70052;SDS011;57398;52.032;4.376;2023-03-13T15:16:24;11.43;;;2.53;;
70052;SDS011;57398;52.032;4.376;2023-03-13T15:19:16;12.55;;;2.97;;
70052;SDS011;57398;52.032;4.376;2023-03-13T15:22:04;12.50;;;2.28;;
70052;SDS011;57398;52.032;4.376;2023-03-13T15:24:52;12.05;;;2.75;;
70052;SDS011;57398;52.032;4.376;2023-03-13T15:27:51;11.32;;;1.60;;
70052;SDS011;57398;52.032;4.376;2023-03-13T15:30:39;15.20;;;2.47;;
70052;SDS011;57398;52.032;4.376;2023-03-13T15:33:28;8.95;;;1.92;;
70052;SDS011;57398;52.032;4.376;2023-03-13T15:36:18;15.60;;;2.22;;
70052;SDS011;57398;52.032;4.376;2023-03-13T15:39:08;14.07;;;2.03;;
70052;SDS011;57398;52.032;4.376;2023-03-13T15:41:59;11.95;;;2.20;;
70052;SDS011;57398;52.032;4.376;2023-03-13T15:44:47;13.23;;;2.10;;
70052;SDS011;57398;52.032;4.376;2023-03-13T15:47:36;12.27;;;1.83;;
70052;SDS011;57398;52.032;4.376;2023-03-13T15:50:24;11.77;;;2.30;;
70052;SDS011;57398;52.032;4.376;2023-03-13T15:53:18;14.20;;;2.45;;
70052;SDS011;57398;52.032;4.376;2023-03-13T15:56:13;11.95;;;2.35;;
70052;SDS011;57398;52.032;4.376;2023-03-13T15:59:08;11.67;;;1.63;;
70052;SDS011;57398;52.032;4.376;2023-03-13T16:01:58;12.18;;;2.00;;
70052;SDS011;57398;52.032;4.376;2023-03-13T16:04:46;11.57;;;1.80;;
70052;SDS011;57398;52.032;4.376;2023-03-13T16:07:34;12.60;;;2.10;;
70052;SDS011;57398;52.032;4.376;2023-03-13T16:10:25;13.98;;;2.30;;
70052;SDS011;57398;52.032;4.376;2023-03-13T16:13:15;12.00;;;2.10;;
70052;SDS011;57398;52.032;4.376;2023-03-13T16:16:07;16.48;;;2.60;;
70052;SDS011;57398;52.032;4.376;2023-03-13T16:19:03;14.38;;;2.00;;
70052;SDS011;57398;52.032;4.376;2023-03-13T16:21:53;15.77;;;2.70;;
70052;SDS011;57398;52.032;4.376;2023-03-13T16:24:41;15.48;;;2.65;;
70052;SDS011;57398;52.032;4.376;2023-03-13T16:27:30;12.23;;;2.20;;
70052;SDS011;57398;52.032;4.376;2023-03-13T16:30:20;13.50;;;2.33;;
70052;SDS011;57398;52.032;4.376;2023-03-13T16:33:10;14.32;;;2.38;;
70052;SDS011;57398;52.032;4.376;2023-03-13T16:35:58;14.55;;;2.00;;
70052;SDS011;57398;52.032;4.376;2023-03-13T16:38:46;12.27;;;2.08;;
70052;SDS011;57398;52.032;4.376;2023-03-13T16:41:35;11.87;;;2.17;;
70052;SDS011;57398;52.032;4.376;2023-03-13T16:44:25;16.95;;;3.35;;
70052;SDS011;57398;52.032;4.376;2023-03-13T16:47:18;11.98;;;2.60;;
70052;SDS011;57398;52.032;4.376;2023-03-13T16:50:14;14.95;;;2.20;;
70052;SDS011;57398;52.032;4.376;2023-03-13T16:53:07;12.10;;;2.03;;
70052;SDS011;57398;52.032;4.376;2023-03-13T16:55:55;16.43;;;2.40;;
70052;SDS011;57398;52.032;4.376;2023-03-13T16:58:43;14.15;;;2.15;;
70052;SDS011;57398;52.032;4.376;2023-03-13T17:01:35;14.93;;;2.75;;
70052;SDS011;57398;52.032;4.376;2023-03-13T17:04:23;11.63;;;2.08;;
70052;SDS011;57398;52.032;4.376;2023-03-13T17:07:15;17.08;;;3.08;;
70052;SDS011;57398;52.032;4.376;2023-03-13T17:10:10;15.00;;;3.00;;
70052;SDS011;57398;52.032;4.376;2023-03-13T17:13:02;15.65;;;2.60;;
70052;SDS011;57398;52.032;4.376;2023-03-13T17:15:52;19.13;;;2.60;;
70052;SDS011;57398;52.032;4.376;2023-03-13T17:18:42;11.95;;;2.35;;